createdAt,value
2023-05-21T00:02:06.339Z,41.92
2023-05-21T00:04:54.936Z,42.24
2023-05-21T00:07:46.034Z,41.88
2023-05-21T00:10:34.721Z,41.96
2023-05-21T00:13:23.392Z,41.99
2023-05-21T00:16:13.478Z,41.80
2023-05-21T00:19:02.304Z,42.21
2023-05-21T00:21:51.032Z,41.74
2023-05-21T00:24:39.675Z,42.05
2023-05-21T00:27:28.306Z,41.96
2023-05-21T00:30:17.294Z,42.02
2023-05-21T00:33:07.611Z,42.00
2023-05-21T00:35:56.809Z,41.72
2023-05-21T00:38:46.186Z,41.79
2023-05-21T00:41:35.400Z,41.74
2023-05-21T00:44:25.383Z,41.89
2023-05-21T00:47:18.243Z,41.97
2023-05-21T00:50:10.235Z,41.80
2023-05-21T00:52:59.736Z,41.81
2023-05-21T00:55:49.049Z,41.75
2023-05-21T00:58:38.662Z,41.90
2023-05-21T01:01:27.695Z,41.61
2023-05-21T01:04:16.600Z,41.55
2023-05-21T01:07:09.720Z,41.99
2023-05-21T01:09:58.461Z,41.72
2023-05-21T01:12:49.150Z,41.69
2023-05-21T01:15:39.013Z,42.02
2023-05-21T01:18:28.312Z,41.97
2023-05-21T01:21:17.592Z,41.99
2023-05-21T01:24:08.244Z,42.14
2023-05-21T01:26:58.664Z,41.76
2023-05-21T01:29:47.334Z,41.64
2023-05-21T01:32:44.152Z,41.64
2023-05-21T01:35:38.226Z,41.66
2023-05-21T01:38:32.696Z,41.74
2023-05-21T01:41:23.541Z,42.26
2023-05-21T01:44:13.535Z,41.84
2023-05-21T01:47:03.542Z,41.79
2023-05-21T01:49:53.465Z,41.73
2023-05-21T01:52:50.964Z,41.81
2023-05-21T01:55:42.091Z,41.84
2023-05-21T01:58:32.341Z,41.85
2023-05-21T02:01:21.006Z,41.82
2023-05-21T02:04:09.812Z,41.55
2023-05-21T02:06:58.787Z,41.56
2023-05-21T02:09:47.476Z,41.66
2023-05-21T02:12:36.156Z,41.72
2023-05-21T02:15:26.733Z,41.93
2023-05-21T02:18:16.825Z,41.66
2023-05-21T02:21:05.931Z,41.53
2023-05-21T02:23:54.589Z,41.48
2023-05-21T02:26:43.417Z,41.61
2023-05-21T02:29:32.347Z,41.87
2023-05-21T02:32:23.727Z,41.56
2023-05-21T02:35:13.959Z,41.89
2023-05-21T02:38:04.931Z,41.61
2023-05-21T02:40:53.821Z,41.55
2023-05-21T02:43:42.556Z,41.64
2023-05-21T02:46:31.341Z,41.58
2023-05-21T02:49:21.644Z,41.76
2023-05-21T02:52:10.335Z,41.62
2023-05-21T02:54:58.969Z,41.67
2023-05-21T02:57:47.598Z,41.74
2023-05-21T03:00:36.273Z,41.47
2023-05-21T03:03:25.238Z,41.95
2023-05-21T03:06:16.390Z,41.79
2023-05-21T03:09:05.938Z,41.37
2023-05-21T03:11:54.636Z,41.65
2023-05-21T03:14:44.159Z,41.77
2023-05-21T03:17:32.805Z,41.51
2023-05-21T03:20:21.474Z,41.33
2023-05-21T03:23:15.698Z,41.53
2023-05-21T03:26:05.371Z,41.63
2023-05-21T03:28:53.996Z,41.66
2023-05-21T03:31:42.696Z,41.65
2023-05-21T03:34:31.422Z,41.95
2023-05-21T03:37:20.053Z,41.56
2023-05-21T03:40:11.564Z,41.85
2023-05-21T03:43:00.222Z,41.53
2023-05-21T03:45:48.924Z,41.39
2023-05-21T03:48:40.215Z,41.82
2023-05-21T03:51:30.295Z,41.54
2023-05-21T03:54:18.951Z,41.58
2023-05-21T03:57:09.174Z,41.58
2023-05-21T03:59:59.010Z,41.61
2023-05-21T04:02:48.093Z,41.58
2023-05-21T04:05:36.975Z,41.46
2023-05-21T04:08:28.362Z,41.85
2023-05-21T04:11:16.995Z,41.69
2023-05-21T04:14:07.036Z,41.86
2023-05-21T04:16:56.742Z,42.03
2023-05-21T04:19:45.387Z,41.77
2023-05-21T04:22:35.353Z,41.62
2023-05-21T04:25:25.327Z,41.91
2023-05-21T04:28:14.009Z,41.60
2023-05-21T04:31:05.785Z,41.60
2023-05-21T04:33:55.470Z,41.40
2023-05-21T04:36:44.083Z,41.74
2023-05-21T04:39:32.771Z,41.68
2023-05-21T04:42:24.009Z,41.85
2023-05-21T04:45:13.329Z,41.59
2023-05-21T04:48:03.726Z,41.88
2023-05-21T04:50:53.525Z,41.68
2023-05-21T04:53:42.654Z,41.83
2023-05-21T04:56:33.049Z,41.95
2023-05-21T04:59:21.793Z,42.11
2023-05-21T05:02:10.560Z,42.09
2023-05-21T05:05:00.614Z,42.20
2023-05-21T05:07:49.313Z,41.96
2023-05-21T05:10:37.947Z,42.26
2023-05-21T05:13:27.242Z,41.92
2023-05-21T05:16:18.424Z,41.84
2023-05-21T05:19:07.182Z,42.25
2023-05-21T05:21:57.276Z,42.38
2023-05-21T05:24:45.992Z,42.41
2023-05-21T05:27:36.407Z,42.14
2023-05-21T05:30:27.759Z,42.32
2023-05-21T05:33:16.617Z,42.06
2023-05-21T05:36:05.654Z,42.25
2023-05-21T05:38:55.775Z,42.10
2023-05-21T05:41:44.389Z,42.59
2023-05-21T05:44:33.125Z,42.65
2023-05-21T05:47:21.777Z,42.31
2023-05-21T05:50:10.968Z,42.37
2023-05-21T05:52:59.626Z,42.71
2023-05-21T05:55:49.670Z,42.59
2023-05-21T05:58:38.494Z,42.87
2023-05-21T06:01:28.047Z,42.89
2023-05-21T06:04:16.694Z,42.63
2023-05-21T06:07:05.611Z,42.90
2023-05-21T06:09:55.676Z,42.94
2023-05-21T06:12:45.825Z,43.16
2023-05-21T06:15:35.692Z,43.22
2023-05-21T06:18:26.829Z,42.97
2023-05-21T06:21:15.492Z,42.79
2023-05-21T06:24:05.243Z,43.05
2023-05-21T06:26:53.891Z,43.14
2023-05-21T06:29:43.975Z,43.12
2023-05-21T06:32:32.848Z,43.06
2023-05-21T06:35:21.910Z,43.17
2023-05-21T06:38:10.581Z,42.94
2023-05-21T06:40:59.469Z,43.68
2023-05-21T06:43:48.101Z,43.70
2023-05-21T06:46:38.186Z,43.83
2023-05-21T06:49:26.809Z,43.36
2023-05-21T06:52:15.452Z,43.50
2023-05-21T06:55:06.338Z,43.72
2023-05-21T06:57:55.030Z,43.52
2023-05-21T07:00:43.717Z,43.34
2023-05-21T07:03:33.883Z,43.38
2023-05-21T07:06:22.519Z,43.58
2023-05-21T07:09:11.202Z,43.37
2023-05-21T07:12:00.034Z,43.29
2023-05-21T07:14:49.029Z,43.77
2023-05-21T07:17:37.926Z,43.51
2023-05-21T07:20:27.931Z,43.21
2023-05-21T07:23:16.654Z,43.63
2023-05-21T07:26:05.686Z,43.22
2023-05-21T07:28:54.445Z,43.49
2023-05-21T07:31:43.233Z,43.33
2023-05-21T07:34:33.035Z,43.58
2023-05-21T07:37:23.300Z,43.39
2023-05-21T07:40:13.069Z,43.52
2023-05-21T07:43:04.679Z,43.50
2023-05-21T07:45:53.545Z,43.10
2023-05-21T07:48:44.155Z,42.74
2023-05-21T07:51:33.092Z,42.33
2023-05-21T07:54:23.153Z,42.38
2023-05-21T07:57:11.820Z,41.66
2023-05-21T08:00:00.526Z,41.50
2023-05-21T08:02:50.522Z,42.29
2023-05-21T08:05:39.378Z,43.28
2023-05-21T08:08:28.130Z,43.90
2023-05-21T08:11:18.244Z,43.10
2023-05-21T08:14:11.608Z,43.61
2023-05-21T08:17:00.272Z,43.62
2023-05-21T08:19:48.986Z,43.42
2023-05-21T08:22:37.697Z,44.04
2023-05-21T08:25:29.341Z,43.71
2023-05-21T08:28:19.425Z,43.44
2023-05-21T08:31:10.206Z,42.58
2023-05-21T08:33:58.873Z,42.75
2023-05-21T08:36:49.952Z,43.40
2023-05-21T08:39:38.636Z,42.96
2023-05-21T08:42:37.519Z,43.19
2023-05-21T08:45:29.064Z,42.48
2023-05-21T08:48:18.487Z,42.01
2023-05-21T08:51:09.481Z,42.28
2023-05-21T08:53:59.303Z,42.78
2023-05-21T08:56:49.573Z,42.22
2023-05-21T08:59:43.253Z,41.86
2023-05-21T09:02:38.938Z,41.61
2023-05-21T09:05:28.658Z,41.99
2023-05-21T09:08:21.849Z,43.29
2023-05-21T09:11:10.710Z,42.22
2023-05-21T09:14:00.598Z,43.48
2023-05-21T09:16:49.345Z,43.33
2023-05-21T09:19:39.972Z,42.45
2023-05-21T09:22:29.483Z,42.90
2023-05-21T09:25:22.355Z,43.03
2023-05-21T09:28:14.449Z,42.51
2023-05-21T09:31:05.303Z,42.18
2023-05-21T09:33:55.639Z,41.86
2023-05-21T09:36:47.231Z,41.93
2023-05-21T09:39:36.070Z,42.13
2023-05-21T09:42:24.760Z,41.63
2023-05-21T09:45:14.970Z,41.44
2023-05-21T09:48:03.872Z,41.48
2023-05-21T09:50:52.952Z,41.25
2023-05-21T09:53:50.045Z,41.36
2023-05-21T09:56:38.738Z,41.06
2023-05-21T09:59:37.855Z,41.44
2023-05-21T10:02:27.723Z,42.34
2023-05-21T10:05:17.572Z,42.04
2023-05-21T10:08:06.738Z,41.89
2023-05-21T10:10:58.341Z,42.31
2023-05-21T10:13:50.640Z,41.74
2023-05-21T10:16:39.329Z,42.27
2023-05-21T10:19:32.060Z,41.99
2023-05-21T10:22:21.156Z,41.60
2023-05-21T10:25:10.503Z,41.63
2023-05-21T10:28:00.638Z,41.91
2023-05-21T10:30:49.752Z,41.39
2023-05-21T10:33:40.040Z,41.33
2023-05-21T10:36:32.732Z,41.10
2023-05-21T10:39:24.029Z,41.33
2023-05-21T10:42:28.290Z,41.40
2023-05-21T10:45:28.721Z,40.99
2023-05-21T10:48:40.558Z,40.98
2023-05-21T10:51:30.736Z,41.02
2023-05-21T10:54:54.387Z,41.42
2023-05-21T10:58:18.182Z,42.21
2023-05-21T11:01:09.383Z,41.92
2023-05-21T11:03:58.107Z,42.08
2023-05-21T11:06:49.608Z,41.59
2023-05-21T11:09:39.771Z,41.89
2023-05-21T11:12:29.874Z,41.40
2023-05-21T11:15:18.485Z,41.57
2023-05-21T11:18:09.479Z,41.27
2023-05-21T11:21:06.009Z,40.91
2023-05-21T11:23:55.341Z,41.45
2023-05-21T11:27:06.715Z,41.18
2023-05-21T11:29:57.452Z,40.69
2023-05-21T11:33:15.911Z,40.63
2023-05-21T11:36:14.373Z,40.66
2023-05-21T11:39:17.912Z,40.75
2023-05-21T11:42:06.943Z,40.28
2023-05-21T11:44:57.999Z,39.82
2023-05-21T11:47:46.874Z,39.69
2023-05-21T11:50:37.620Z,39.64
2023-05-21T11:53:27.936Z,39.69
2023-05-21T11:56:18.395Z,39.52
2023-05-21T11:59:07.101Z,39.77
2023-05-21T12:01:56.961Z,39.88
2023-05-21T12:04:48.582Z,39.81
2023-05-21T12:07:38.524Z,39.52
2023-05-21T12:10:28.751Z,39.67
2023-05-21T12:13:17.371Z,39.56
2023-05-21T12:16:07.368Z,39.56
2023-05-21T12:18:56.502Z,39.36
2023-05-21T12:21:45.661Z,39.36
2023-05-21T12:24:35.534Z,39.49
2023-05-21T12:27:28.243Z,39.33
2023-05-21T12:30:20.149Z,39.80
2023-05-21T12:33:08.819Z,39.63
2023-05-21T12:35:57.676Z,39.57
2023-05-21T12:38:47.684Z,40.05
2023-05-21T12:41:36.420Z,39.75
2023-05-21T12:44:31.717Z,39.91
2023-05-21T12:47:21.026Z,40.16
2023-05-21T12:50:12.351Z,40.26
2023-05-21T12:53:00.966Z,40.01
2023-05-21T12:55:49.766Z,39.51
2023-05-21T12:58:40.262Z,39.50
2023-05-21T13:01:30.361Z,39.69
2023-05-21T13:04:21.602Z,40.35
2023-05-21T13:07:10.341Z,40.19
2023-05-21T13:10:00.053Z,40.26
2023-05-21T13:12:48.665Z,40.31
2023-05-21T13:15:37.520Z,40.05
2023-05-21T13:18:27.876Z,39.93
2023-05-21T13:21:16.747Z,39.75
2023-05-21T13:24:05.746Z,39.63
2023-05-21T13:26:54.407Z,40.01
2023-05-21T13:29:43.156Z,39.75
2023-05-21T13:32:32.078Z,39.69
2023-05-21T13:35:22.313Z,39.82
2023-05-21T13:38:10.975Z,39.52
2023-05-21T13:40:59.660Z,39.86
2023-05-21T13:43:48.408Z,40.11
2023-05-21T13:46:39.463Z,40.06
2023-05-21T13:49:28.310Z,40.28
2023-05-21T13:52:18.449Z,40.59
2023-05-21T13:55:08.152Z,40.82
2023-05-21T13:57:56.885Z,41.08
2023-05-21T14:00:45.729Z,41.05
2023-05-21T14:03:34.994Z,41.49
2023-05-21T14:06:23.685Z,41.02
2023-05-21T14:09:14.052Z,40.96
2023-05-21T14:12:06.243Z,40.75
2023-05-21T14:14:55.533Z,40.41
2023-05-21T14:17:44.260Z,40.06
2023-05-21T14:20:33.100Z,40.15
2023-05-21T14:23:21.939Z,39.98
2023-05-21T14:26:12.107Z,39.86
2023-05-21T14:29:01.442Z,39.55
2023-05-21T14:31:50.267Z,39.78
2023-05-21T14:34:40.605Z,39.50
2023-05-21T14:37:29.257Z,39.94
2023-05-21T14:40:18.366Z,39.86
2023-05-21T14:43:08.521Z,39.57
2023-05-21T14:45:57.465Z,39.33
2023-05-21T14:48:46.685Z,39.66
2023-05-21T14:51:35.413Z,39.66
2023-05-21T14:54:24.043Z,39.89
2023-05-21T14:57:12.727Z,39.61
2023-05-21T15:00:02.996Z,40.01
2023-05-21T15:02:52.253Z,40.04
2023-05-21T15:05:42.202Z,39.96
2023-05-21T15:08:31.002Z,40.29
2023-05-21T15:11:19.690Z,40.37
2023-05-21T15:14:08.414Z,40.33
2023-05-21T15:16:58.442Z,40.57
2023-05-21T15:19:48.764Z,40.31
2023-05-21T15:22:37.810Z,40.81
2023-05-21T15:25:26.531Z,40.49
2023-05-21T15:28:15.422Z,40.33
2023-05-21T15:31:04.479Z,40.83
2023-05-21T15:33:54.681Z,40.71
2023-05-21T15:36:43.358Z,40.70
2023-05-21T15:39:32.084Z,40.41
2023-05-21T15:42:20.915Z,40.80
2023-05-21T15:45:12.039Z,40.72
2023-05-21T15:48:00.756Z,41.08
2023-05-21T15:50:51.241Z,40.91
2023-05-21T15:53:40.113Z,41.02
2023-05-21T15:56:29.192Z,40.89
2023-05-21T15:59:20.699Z,40.73
2023-05-21T16:02:10.127Z,40.47
2023-05-21T16:04:58.887Z,39.91
2023-05-21T16:07:49.203Z,40.42
2023-05-21T16:10:39.985Z,39.93
2023-05-21T16:13:28.802Z,39.94
2023-05-21T16:16:17.613Z,39.95
2023-05-21T16:19:06.842Z,40.29
2023-05-21T16:21:55.497Z,40.06
2023-05-21T16:24:45.680Z,40.15
2023-05-21T16:27:35.549Z,39.53
2023-05-21T16:30:24.224Z,40.02
2023-05-21T16:33:13.040Z,39.74
2023-05-21T16:36:01.722Z,38.59
2023-05-21T16:38:50.521Z,37.69
2023-05-21T16:41:40.577Z,38.12
2023-05-21T16:44:29.350Z,38.19
2023-05-21T16:47:18.291Z,37.96
2023-05-21T16:50:08.581Z,37.75
2023-05-21T16:52:59.205Z,38.16
2023-05-21T16:55:47.929Z,38.19
2023-05-21T16:58:38.100Z,38.61
2023-05-21T17:01:27.038Z,38.40
2023-05-21T17:04:15.689Z,37.78
2023-05-21T17:07:04.509Z,37.55
2023-05-21T17:09:53.438Z,37.29
2023-05-21T17:12:42.102Z,37.13
2023-05-21T17:15:32.323Z,37.49
2023-05-21T17:18:21.175Z,37.72
2023-05-21T17:21:11.095Z,37.25
2023-05-21T17:23:59.765Z,37.06
2023-05-21T17:26:48.438Z,36.99
2023-05-21T17:29:37.117Z,37.20
2023-05-21T17:32:27.198Z,37.32
2023-05-21T17:35:15.994Z,37.47
2023-05-21T17:38:04.747Z,37.24
2023-05-21T17:40:54.423Z,37.12
2023-05-21T17:43:43.090Z,37.36
2023-05-21T17:46:33.876Z,37.95
2023-05-21T17:49:23.914Z,38.28
2023-05-21T17:52:12.817Z,37.69
2023-05-21T17:55:02.421Z,38.15
2023-05-21T17:57:51.045Z,38.44
2023-05-21T18:00:39.850Z,38.17
2023-05-21T18:03:28.574Z,38.21
2023-05-21T18:06:18.822Z,38.09
2023-05-21T18:09:08.242Z,38.54
2023-05-21T18:11:58.365Z,38.80
2023-05-21T18:14:48.077Z,38.69
2023-05-21T18:17:36.814Z,39.19
2023-05-21T18:20:25.950Z,38.78
2023-05-21T18:23:16.228Z,38.81
2023-05-21T18:26:05.835Z,39.12
2023-05-21T18:28:54.588Z,38.60
2023-05-21T18:31:45.599Z,39.00
2023-05-21T18:34:34.334Z,39.02
2023-05-21T18:37:22.938Z,39.09
2023-05-21T18:40:14.770Z,39.27
2023-05-21T18:43:05.986Z,39.28
2023-05-21T18:45:54.682Z,39.36
2023-05-21T18:48:43.366Z,39.53
2023-05-21T18:51:32.541Z,39.36
2023-05-21T18:54:21.228Z,39.44
2023-05-21T18:57:11.996Z,39.43
2023-05-21T19:00:00.959Z,39.56
2023-05-21T19:02:49.756Z,39.54
2023-05-21T19:05:38.553Z,39.52
2023-05-21T19:08:27.207Z,39.62
2023-05-21T19:11:17.521Z,39.32
2023-05-21T19:14:07.799Z,39.26
2023-05-21T19:16:56.458Z,39.61
2023-05-21T19:19:45.141Z,39.50
2023-05-21T19:22:34.036Z,39.72
2023-05-21T19:28:41.560Z,39.57
2023-05-21T19:31:31.584Z,39.80
2023-05-21T19:34:20.807Z,39.80
2023-05-21T19:37:09.612Z,39.94
2023-05-21T19:39:58.458Z,39.93
2023-05-21T19:42:47.514Z,39.84
2023-05-21T19:45:36.301Z,40.11
2023-05-21T19:48:26.463Z,40.23
2023-05-21T19:51:15.791Z,40.49
2023-05-21T19:54:04.449Z,40.74
2023-05-21T19:56:53.239Z,40.69
2023-05-21T19:59:41.940Z,40.83
2023-05-21T20:02:30.734Z,40.75
2023-05-21T20:05:21.082Z,40.79
2023-05-21T20:08:09.687Z,40.81
2023-05-21T20:10:58.294Z,40.49
2023-05-21T20:13:50.080Z,40.23
2023-05-21T20:16:38.868Z,40.34
2023-05-21T20:19:28.089Z,40.46
2023-05-21T20:22:18.385Z,40.36
2023-05-21T20:25:08.783Z,40.46
2023-05-21T20:27:58.072Z,40.44
2023-05-21T20:30:57.316Z,40.32
2023-05-21T20:33:46.374Z,40.53
2023-05-21T20:36:35.321Z,40.69
2023-05-21T20:39:27.257Z,40.43
2023-05-21T20:42:16.180Z,40.44
2023-05-21T20:45:05.136Z,40.55
2023-05-21T20:47:53.917Z,40.65
2023-05-21T20:50:44.134Z,40.55
2023-05-21T20:53:33.775Z,40.72
2023-05-21T20:56:40.043Z,40.83
2023-05-21T20:59:30.702Z,40.88
2023-05-21T21:02:20.167Z,41.01
2023-05-21T21:05:10.578Z,41.24
2023-05-21T21:08:02.618Z,41.12
2023-05-21T21:10:51.554Z,41.18
2023-05-21T21:13:41.808Z,40.98
2023-05-21T21:16:30.665Z,40.86
2023-05-21T21:19:19.804Z,40.93
2023-05-21T21:22:08.473Z,41.15
2023-05-21T21:24:57.108Z,41.12
2023-05-21T21:27:45.805Z,41.03
2023-05-21T21:30:35.828Z,41.27
2023-05-21T21:33:26.663Z,41.27
2023-05-21T21:36:15.470Z,41.60
2023-05-21T21:39:04.319Z,41.20
2023-05-21T21:41:53.069Z,41.46
2023-05-21T21:44:42.239Z,41.44
2023-05-21T21:47:33.631Z,41.79
2023-05-21T21:50:22.334Z,41.65
2023-05-21T21:53:12.615Z,41.58
2023-05-21T21:56:01.404Z,41.76
2023-05-21T21:58:50.048Z,41.86
2023-05-21T22:01:39.437Z,41.64
2023-05-21T22:04:29.745Z,41.58
2023-05-21T22:07:18.655Z,41.96
2023-05-21T22:10:08.190Z,41.84
2023-05-21T22:12:57.038Z,41.90
2023-05-21T22:15:45.828Z,42.11
2023-05-21T22:18:40.401Z,42.04
2023-05-21T22:21:33.927Z,41.91
2023-05-21T22:24:31.956Z,42.03
2023-05-21T22:27:22.085Z,42.10
2023-05-21T22:30:11.556Z,42.07
2023-05-21T22:33:00.551Z,42.16
2023-05-21T22:35:49.174Z,42.33
2023-05-21T22:38:39.281Z,42.20
2023-05-21T22:41:28.024Z,42.15
2023-05-21T22:44:16.729Z,42.31
2023-05-21T22:47:06.482Z,42.38
2023-05-21T22:49:58.180Z,42.17
2023-05-21T22:52:47.348Z,42.55
2023-05-21T22:55:37.397Z,42.33
2023-05-21T22:58:26.024Z,42.44
2023-05-21T23:01:14.888Z,42.49
2023-05-21T23:04:03.725Z,42.51
2023-05-21T23:06:52.807Z,42.63
2023-05-21T23:09:41.677Z,42.43
2023-05-21T23:12:31.730Z,42.58
2023-05-21T23:15:21.694Z,42.82
2023-05-21T23:18:11.404Z,42.90
2023-05-21T23:21:00.270Z,42.61
2023-05-21T23:23:49.009Z,42.75
2023-05-21T23:26:37.674Z,42.78
2023-05-21T23:29:27.679Z,42.83
2023-05-21T23:32:16.361Z,42.91
2023-05-21T23:35:05.304Z,43.01
2023-05-21T23:37:54.005Z,42.99
2023-05-21T23:40:43.696Z,42.83
2023-05-21T23:43:32.474Z,42.96
2023-05-21T23:46:22.919Z,42.93
2023-05-21T23:49:11.983Z,42.69
2023-05-21T23:52:01.506Z,42.73
2023-05-21T23:54:50.111Z,42.74
2023-05-21T23:57:39.197Z,42.87
